createdAt,value
2019-04-30T00:00:46.471Z,92.44
2019-04-30T00:03:24.911Z,92.71
2019-04-30T00:05:57.360Z,92.17
2019-04-30T00:08:30.165Z,92.62
2019-04-30T00:10:59.563Z,92.90
2019-04-30T00:13:30.035Z,93.02
2019-04-30T00:16:01.678Z,92.66
2019-04-30T00:18:37.888Z,92.45
2019-04-30T00:21:05.476Z,92.98
2019-04-30T00:23:36.157Z,93.23
2019-04-30T00:26:10.383Z,92.92
2019-04-30T00:28:39.373Z,93.33
2019-04-30T00:31:10.807Z,93.40
2019-04-30T00:33:41.252Z,93.61
2019-04-30T00:36:11.817Z,93.61
2019-04-30T00:38:42.306Z,93.72
2019-04-30T00:41:12.753Z,93.91
2019-04-30T00:43:49.291Z,93.84
2019-04-30T00:46:17.427Z,94.20
2019-04-30T00:48:47.688Z,94.21
2019-04-30T00:51:20.986Z,93.87
2019-04-30T00:53:51.215Z,93.93
2019-04-30T00:56:24.766Z,93.76
2019-04-30T00:58:57.569Z,93.75
2019-04-30T01:01:48.976Z,93.45
2019-04-30T01:04:28.086Z,93.37
2019-04-30T01:07:00.178Z,93.58
2019-04-30T01:09:29.300Z,93.81
2019-04-30T01:11:59.568Z,93.69
2019-04-30T01:14:31.923Z,93.71
2019-04-30T01:17:03.679Z,93.28
2019-04-30T01:19:34.397Z,93.99
2019-04-30T01:22:04.911Z,93.55
2019-04-30T01:24:35.429Z,93.95
2019-04-30T01:27:07.021Z,93.74
2019-04-30T01:29:44.108Z,93.66
2019-04-30T01:32:16.695Z,93.66
2019-04-30T01:34:44.206Z,93.75
2019-04-30T01:37:14.693Z,93.69
2019-04-30T01:39:45.130Z,93.77
2019-04-30T01:42:15.511Z,94.05
2019-04-30T01:44:50.457Z,93.74
2019-04-30T01:47:21.482Z,93.78
2019-04-30T01:49:50.122Z,93.58
2019-04-30T01:52:20.542Z,93.54
2019-04-30T01:54:50.846Z,93.14
2019-04-30T01:57:39.095Z,93.25
2019-04-30T02:00:20.778Z,93.38
2019-04-30T02:02:51.236Z,93.47
2019-04-30T02:05:21.678Z,93.22
2019-04-30T02:07:52.088Z,93.61
2019-04-30T02:10:22.540Z,93.29
2019-04-30T02:12:53.021Z,93.46
2019-04-30T02:15:23.414Z,93.63
2019-04-30T02:17:53.840Z,93.81
2019-04-30T02:20:24.255Z,93.85
2019-04-30T02:22:54.623Z,94.08
2019-04-30T02:25:25.052Z,93.46
2019-04-30T02:27:55.523Z,93.76
2019-04-30T02:30:25.999Z,93.79
2019-04-30T02:33:00.106Z,93.71
2019-04-30T02:35:53.889Z,93.52
2019-04-30T02:38:31.078Z,93.91
2019-04-30T02:41:02.441Z,94.31
2019-04-30T02:43:34.006Z,93.91
2019-04-30T02:46:09.463Z,94.04
2019-04-30T02:48:40.063Z,94.37
2019-04-30T02:51:13.466Z,94.20
2019-04-30T02:54:13.755Z,94.22
2019-04-30T02:56:46.277Z,94.10
2019-04-30T02:59:16.674Z,94.30
2019-04-30T03:01:49.909Z,93.86
2019-04-30T03:04:19.760Z,94.16
2019-04-30T03:06:50.582Z,94.04
2019-04-30T03:09:21.052Z,94.27
2019-04-30T03:11:51.487Z,94.38
2019-04-30T03:14:21.872Z,94.50
2019-04-30T03:17:04.430Z,94.79
2019-04-30T03:19:43.789Z,94.50
2019-04-30T03:22:25.872Z,94.38
2019-04-30T03:24:56.325Z,94.75
2019-04-30T03:27:26.693Z,94.87
2019-04-30T03:29:59.969Z,94.62
2019-04-30T03:32:31.551Z,95.17
2019-04-30T03:35:03.123Z,94.94
2019-04-30T03:37:33.554Z,95.15
2019-04-30T03:40:04.081Z,94.99
2019-04-30T03:42:34.575Z,95.31
2019-04-30T03:45:05.309Z,94.86
2019-04-30T03:47:35.708Z,95.29
2019-04-30T03:50:06.439Z,95.55
2019-04-30T03:52:39.245Z,95.38
2019-04-30T03:55:09.493Z,95.62
2019-04-30T03:57:40.102Z,95.29
2019-04-30T04:00:12.914Z,95.44
2019-04-30T04:02:45.445Z,95.53
2019-04-30T04:05:34.756Z,95.32
2019-04-30T04:08:22.755Z,95.04
2019-04-30T04:11:00.618Z,95.51
2019-04-30T04:13:33.141Z,95.71
2019-04-30T04:16:04.909Z,95.48
2019-04-30T04:18:35.378Z,95.59
2019-04-30T04:21:11.362Z,95.32
2019-04-30T04:23:39.903Z,95.41
2019-04-30T04:26:10.133Z,95.51
2019-04-30T04:28:43.153Z,95.39
2019-04-30T04:31:12.720Z,95.48
2019-04-30T04:33:43.172Z,95.67
2019-04-30T04:36:13.599Z,95.52
2019-04-30T04:38:43.937Z,95.26
2019-04-30T04:41:14.325Z,95.32
2019-04-30T04:43:44.744Z,95.42
2019-04-30T04:46:15.229Z,95.46
2019-04-30T04:48:45.545Z,95.26
2019-04-30T04:51:31.432Z,94.70
2019-04-30T04:53:50.077Z,95.25
2019-04-30T04:56:20.335Z,95.37
2019-04-30T04:58:50.780Z,95.54
2019-04-30T05:01:21.241Z,95.82
2019-04-30T05:03:51.731Z,96.10
2019-04-30T05:06:22.414Z,95.79
2019-04-30T05:08:52.946Z,95.72
2019-04-30T05:11:23.417Z,95.99
2019-04-30T05:13:53.835Z,96.07
2019-04-30T05:16:24.401Z,95.74
2019-04-30T05:18:54.862Z,95.85
2019-04-30T05:21:25.474Z,95.85
2019-04-30T05:23:55.753Z,95.95
2019-04-30T05:26:26.206Z,95.88
2019-04-30T05:28:56.711Z,95.83
2019-04-30T05:31:28.947Z,95.47
2019-04-30T05:33:59.413Z,95.61
2019-04-30T05:36:29.845Z,95.73
2019-04-30T05:39:00.237Z,95.86
2019-04-30T05:41:30.677Z,95.85
2019-04-30T05:44:01.100Z,96.12
2019-04-30T05:46:31.509Z,95.98
2019-04-30T05:49:01.918Z,95.95
2019-04-30T05:51:32.327Z,95.77
2019-04-30T05:54:02.771Z,95.92
2019-04-30T05:56:33.139Z,95.96
2019-04-30T05:59:03.586Z,95.58
2019-04-30T06:01:34.083Z,95.79
2019-04-30T06:04:04.525Z,96.43
2019-04-30T06:06:34.959Z,96.08
2019-04-30T06:09:14.813Z,95.35
2019-04-30T06:12:12.053Z,94.69
2019-04-30T06:14:49.897Z,94.69
2019-04-30T06:17:20.205Z,94.72
2019-04-30T06:19:51.403Z,94.91
2019-04-30T06:22:22.624Z,94.89
2019-04-30T06:24:53.049Z,94.97
2019-04-30T06:27:23.582Z,95.48
2019-04-30T06:29:54.112Z,95.42
2019-04-30T06:32:24.585Z,95.53
2019-04-30T06:34:55.146Z,95.36
2019-04-30T06:37:25.723Z,95.46
2019-04-30T06:39:56.111Z,95.28
2019-04-30T06:42:26.585Z,95.54
2019-04-30T06:44:56.875Z,95.45
2019-04-30T06:47:33.116Z,95.45
2019-04-30T06:50:01.316Z,95.67
2019-04-30T06:52:31.863Z,95.29
2019-04-30T06:55:02.322Z,95.79
2019-04-30T06:57:32.790Z,95.78
2019-04-30T07:00:03.263Z,95.92
2019-04-30T07:02:33.757Z,95.89
2019-04-30T07:05:04.230Z,95.81
2019-04-30T07:07:38.695Z,95.75
2019-04-30T07:10:35.606Z,95.37
2019-04-30T07:13:18.765Z,95.06
2019-04-30T07:15:49.299Z,94.60
2019-04-30T07:18:19.626Z,94.90
2019-04-30T07:20:49.987Z,94.56
2019-04-30T07:23:20.382Z,94.00
2019-04-30T07:25:51.774Z,93.62
2019-04-30T07:28:40.115Z,93.56
2019-04-30T07:31:07.671Z,93.10
2019-04-30T07:33:26.772Z,93.08
2019-04-30T07:36:01.527Z,93.43
2019-04-30T07:38:29.560Z,93.18
2019-04-30T07:41:00.017Z,93.52
2019-04-30T07:43:30.399Z,93.93
2019-04-30T07:46:00.752Z,94.07
2019-04-30T07:48:31.143Z,94.19
2019-04-30T07:51:01.554Z,93.73
2019-04-30T07:53:32.001Z,92.31
2019-04-30T07:56:20.818Z,92.46
2019-04-30T07:58:34.522Z,93.15
2019-04-30T08:01:04.991Z,93.70
2019-04-30T08:03:55.140Z,92.45
2019-04-30T08:06:25.730Z,91.45
2019-04-30T08:08:59.850Z,91.66
2019-04-30T08:11:29.314Z,90.40
2019-04-30T08:14:00.035Z,90.16
2019-04-30T08:16:30.703Z,89.80
2019-04-30T08:19:01.088Z,89.60
2019-04-30T08:21:31.498Z,88.65
2019-04-30T08:24:01.889Z,86.95
2019-04-30T08:26:32.357Z,86.94
2019-04-30T08:29:02.827Z,86.42
2019-04-30T08:31:33.208Z,85.55
2019-04-30T08:34:03.670Z,86.14
2019-04-30T08:36:34.057Z,82.99
2019-04-30T08:39:05.989Z,82.24
2019-04-30T08:41:36.343Z,82.12
2019-04-30T08:44:06.960Z,82.71
2019-04-30T08:46:38.769Z,84.64
2019-04-30T08:49:10.022Z,84.05
2019-04-30T08:51:41.125Z,84.25
2019-04-30T08:54:11.544Z,81.73
2019-04-30T08:56:41.984Z,85.03
2019-04-30T08:59:12.392Z,85.21
2019-04-30T09:01:42.843Z,84.78
2019-04-30T09:04:13.219Z,84.75
2019-04-30T09:06:43.739Z,81.07
2019-04-30T09:09:21.626Z,80.00
2019-04-30T09:11:55.593Z,75.48
2019-04-30T09:14:24.171Z,74.20
2019-04-30T09:16:54.603Z,71.35
2019-04-30T09:19:25.065Z,72.79
2019-04-30T09:21:55.538Z,73.09
2019-04-30T09:24:25.930Z,73.33
2019-04-30T09:26:56.289Z,70.32
2019-04-30T09:29:26.673Z,70.64
2019-04-30T09:31:56.985Z,70.29
2019-04-30T09:34:29.080Z,67.60
2019-04-30T09:36:59.691Z,66.00
2019-04-30T09:39:30.129Z,61.89
2019-04-30T09:42:00.570Z,65.89
2019-04-30T09:44:31.026Z,66.12
2019-04-30T09:47:01.477Z,65.56
2019-04-30T09:49:31.930Z,68.68
2019-04-30T09:52:02.501Z,68.73
2019-04-30T09:54:33.136Z,69.00
2019-04-30T09:57:03.595Z,64.14
2019-04-30T09:59:34.004Z,64.34
2019-04-30T10:02:04.349Z,66.27
2019-04-30T10:04:35.106Z,65.32
2019-04-30T10:07:05.852Z,65.19
2019-04-30T10:09:36.304Z,65.45
2019-04-30T10:12:13.997Z,66.40
2019-04-30T10:14:44.515Z,68.12
2019-04-30T10:17:33.874Z,66.83
2019-04-30T10:20:05.260Z,62.24
2019-04-30T10:22:35.761Z,65.66
2019-04-30T10:25:09.286Z,62.90
2019-04-30T10:27:39.797Z,58.51
2019-04-30T10:30:12.574Z,60.29
2019-04-30T10:32:42.982Z,56.90
2019-04-30T10:35:13.723Z,58.03
2019-04-30T10:37:44.543Z,55.42
2019-04-30T10:40:15.187Z,57.97
2019-04-30T10:42:45.586Z,58.59
2019-04-30T10:45:16.305Z,60.41
2019-04-30T10:47:46.673Z,53.65
2019-04-30T10:50:17.225Z,49.37
2019-04-30T10:52:49.160Z,44.65
2019-04-30T10:55:19.720Z,47.55
2019-04-30T10:57:50.199Z,46.83
2019-04-30T11:00:24.621Z,45.61
2019-04-30T11:02:55.084Z,43.85
2019-04-30T11:05:25.528Z,41.58
2019-04-30T11:07:55.918Z,43.18
2019-04-30T11:10:26.385Z,43.07
2019-04-30T11:12:56.788Z,42.98
2019-04-30T11:15:28.836Z,41.82
2019-04-30T11:17:59.798Z,39.93
2019-04-30T11:20:30.541Z,43.36
2019-04-30T11:23:13.292Z,43.54
2019-04-30T11:25:33.972Z,46.34
2019-04-30T11:28:05.926Z,45.97
2019-04-30T11:30:39.268Z,43.66
2019-04-30T11:33:10.134Z,41.06
2019-04-30T11:35:40.520Z,38.56
2019-04-30T11:38:10.873Z,38.12
2019-04-30T11:40:41.258Z,38.16
2019-04-30T11:43:11.727Z,36.24
2019-04-30T11:46:46.823Z,37.10
2019-04-30T11:49:17.229Z,36.98
2019-04-30T11:51:47.731Z,37.64
2019-04-30T11:54:18.710Z,37.57
2019-04-30T11:56:50.453Z,34.53
2019-04-30T11:59:21.026Z,37.65
2019-04-30T12:01:53.098Z,35.20
2019-04-30T12:04:23.606Z,35.47
2019-04-30T12:06:55.835Z,35.31
2019-04-30T12:09:54.299Z,35.61
2019-04-30T12:12:25.735Z,38.51
2019-04-30T12:14:56.181Z,39.26
2019-04-30T12:17:26.647Z,37.83
2019-04-30T12:19:58.649Z,36.07
2019-04-30T12:22:29.660Z,35.83
2019-04-30T12:25:03.306Z,33.84
2019-04-30T12:27:32.376Z,33.20
2019-04-30T12:30:02.944Z,34.19
2019-04-30T12:32:35.233Z,34.11
2019-04-30T12:35:07.014Z,32.47
2019-04-30T12:37:39.060Z,32.47
2019-04-30T12:40:25.437Z,31.13
2019-04-30T12:42:42.252Z,31.11
2019-04-30T12:45:12.854Z,30.51
2019-04-30T12:47:48.023Z,30.06
2019-04-30T12:50:30.685Z,28.91
2019-04-30T12:53:04.868Z,27.57
2019-04-30T12:56:00.128Z,25.75
2019-04-30T12:58:28.927Z,25.78
2019-04-30T13:01:03.135Z,25.19
2019-04-30T13:03:33.517Z,25.72
2019-04-30T13:06:05.970Z,23.74
2019-04-30T13:08:37.236Z,26.22
2019-04-30T13:11:12.303Z,26.79
2019-04-30T13:13:41.371Z,25.08
2019-04-30T13:16:12.359Z,26.94
2019-04-30T13:18:42.805Z,28.16
2019-04-30T13:21:13.286Z,28.54
2019-04-30T13:23:43.773Z,28.98
2019-04-30T13:26:14.304Z,29.46
2019-04-30T13:28:55.172Z,30.64
2019-04-30T13:31:25.565Z,30.34
2019-04-30T13:34:01.573Z,30.98
2019-04-30T13:36:32.375Z,33.14
2019-04-30T13:39:21.681Z,35.51
2019-04-30T13:42:15.119Z,34.64
2019-04-30T13:44:39.798Z,37.25
2019-04-30T13:47:10.934Z,37.54
2019-04-30T13:49:41.391Z,38.60
2019-04-30T13:52:11.888Z,38.91
2019-04-30T13:54:42.350Z,41.13
2019-04-30T13:57:13.340Z,41.39
2019-04-30T13:59:43.820Z,41.59
2019-04-30T14:02:14.299Z,41.20
2019-04-30T14:05:03.575Z,40.89
2019-04-30T14:07:51.490Z,41.71
2019-04-30T14:10:21.953Z,40.24
2019-04-30T14:12:56.246Z,41.00
2019-04-30T14:15:26.769Z,40.61
2019-04-30T14:17:57.136Z,42.32
2019-04-30T14:20:27.561Z,41.12
2019-04-30T14:22:58.057Z,41.16
2019-04-30T14:25:28.457Z,42.79
2019-04-30T14:27:59.350Z,42.86
2019-04-30T14:30:29.847Z,43.59
2019-04-30T14:33:00.327Z,41.82
2019-04-30T14:35:33.693Z,43.23
2019-04-30T14:38:05.247Z,42.97
2019-04-30T14:40:36.397Z,43.10
2019-04-30T14:43:32.807Z,42.35
2019-04-30T14:46:31.967Z,41.11
2019-04-30T14:49:22.141Z,41.28
2019-04-30T14:51:53.101Z,40.66
2019-04-30T14:54:33.530Z,40.28
2019-04-30T14:57:08.298Z,41.38
2019-04-30T15:00:09.755Z,42.96
2019-04-30T15:02:50.073Z,41.72
2019-04-30T15:05:19.583Z,40.95
2019-04-30T15:07:50.052Z,40.34
2019-04-30T15:10:20.590Z,40.92
2019-04-30T15:12:51.069Z,41.98
2019-04-30T15:15:21.615Z,42.67
2019-04-30T15:17:52.152Z,42.83
2019-04-30T15:20:22.936Z,45.08
2019-04-30T15:23:03.940Z,42.97
2019-04-30T15:25:34.658Z,44.57
2019-04-30T15:28:05.273Z,43.87
2019-04-30T15:30:35.699Z,44.69
2019-04-30T15:33:13.886Z,44.90
2019-04-30T15:35:44.330Z,45.45
2019-04-30T15:38:14.803Z,47.51
2019-04-30T15:40:45.158Z,46.39
2019-04-30T15:43:15.729Z,46.55
2019-04-30T15:45:46.224Z,46.61
2019-04-30T15:48:16.718Z,47.02
2019-04-30T15:50:49.139Z,46.75
2019-04-30T15:53:19.455Z,46.95
2019-04-30T15:55:49.912Z,46.20
2019-04-30T15:58:24.723Z,46.85
2019-04-30T16:00:55.279Z,47.27
2019-04-30T16:03:28.256Z,47.80
2019-04-30T16:05:58.769Z,47.48
2019-04-30T16:08:48.094Z,47.52
2019-04-30T16:11:39.369Z,46.84
2019-04-30T16:14:19.397Z,46.92
2019-04-30T16:16:57.581Z,47.34
2019-04-30T16:19:28.802Z,47.49
2019-04-30T16:22:00.344Z,48.90
2019-04-30T16:24:30.860Z,48.23
2019-04-30T16:27:01.407Z,49.29
2019-04-30T16:29:31.897Z,50.87
2019-04-30T16:32:02.247Z,49.37
2019-04-30T16:34:32.677Z,48.57
2019-04-30T16:37:03.297Z,49.44
2019-04-30T16:39:33.690Z,48.56
2019-04-30T16:42:04.359Z,48.94
2019-04-30T16:44:39.310Z,49.90
2019-04-30T16:47:14.620Z,49.68
2019-04-30T16:49:41.864Z,50.80
2019-04-30T16:52:12.286Z,51.62
2019-04-30T16:54:42.752Z,52.27
2019-04-30T16:57:13.198Z,52.05
2019-04-30T16:59:43.675Z,53.83
2019-04-30T17:02:14.657Z,54.57
2019-04-30T17:04:53.371Z,53.54
2019-04-30T17:07:41.550Z,52.67
2019-04-30T17:10:33.890Z,52.77
2019-04-30T17:13:18.793Z,53.24
2019-04-30T17:15:50.437Z,53.95
2019-04-30T17:18:20.852Z,55.04
2019-04-30T17:20:51.391Z,55.80
2019-04-30T17:23:21.864Z,55.98
2019-04-30T17:25:52.272Z,56.83
2019-04-30T17:28:22.687Z,56.74
2019-04-30T17:30:53.189Z,57.09
2019-04-30T17:33:23.569Z,58.17
2019-04-30T17:35:54.139Z,58.01
2019-04-30T17:38:24.526Z,58.56
2019-04-30T17:40:54.881Z,58.45
2019-04-30T17:43:25.379Z,58.50
2019-04-30T17:45:55.828Z,59.07
2019-04-30T17:48:26.296Z,58.77
2019-04-30T17:50:56.687Z,59.44
2019-04-30T17:53:28.764Z,60.77
2019-04-30T17:55:59.245Z,61.13
2019-04-30T17:58:29.795Z,62.09
2019-04-30T18:01:01.923Z,62.06
2019-04-30T18:03:32.413Z,61.39
2019-04-30T18:06:02.885Z,62.20
2019-04-30T18:08:34.791Z,62.18
2019-04-30T18:11:05.292Z,62.79
2019-04-30T18:13:35.803Z,61.69
2019-04-30T18:16:08.732Z,62.21
2019-04-30T18:18:49.057Z,63.74
2019-04-30T18:21:48.770Z,64.05
2019-04-30T18:24:39.265Z,65.40
2019-04-30T18:27:21.365Z,66.04
2019-04-30T18:29:51.831Z,66.36
2019-04-30T18:32:23.949Z,66.44
2019-04-30T18:34:54.439Z,66.58
2019-04-30T18:37:25.041Z,67.93
2019-04-30T18:39:59.819Z,67.97
2019-04-30T18:42:29.067Z,66.82
2019-04-30T18:44:59.725Z,67.36
2019-04-30T18:47:30.545Z,67.61
2019-04-30T18:50:01.278Z,67.23
2019-04-30T18:52:32.128Z,67.74
2019-04-30T18:55:02.648Z,67.82
2019-04-30T18:57:33.554Z,67.93
2019-04-30T19:00:04.287Z,68.38
2019-04-30T19:02:35.314Z,68.83
2019-04-30T19:05:09.556Z,69.72
2019-04-30T19:07:52.834Z,69.16
2019-04-30T19:10:34.101Z,69.46
2019-04-30T19:13:22.663Z,69.09
2019-04-30T19:16:19.883Z,69.77
2019-04-30T19:19:02.541Z,69.68
2019-04-30T19:21:33.236Z,68.53
2019-04-30T19:24:03.669Z,70.01
2019-04-30T19:26:34.106Z,70.56
2019-04-30T19:29:07.472Z,70.74
2019-04-30T19:31:39.348Z,70.32
2019-04-30T19:34:09.799Z,69.91
2019-04-30T19:36:40.808Z,70.53
2019-04-30T19:39:13.097Z,70.23
2019-04-30T19:41:43.671Z,71.00
2019-04-30T19:44:14.176Z,71.24
2019-04-30T19:46:44.755Z,71.29
2019-04-30T19:49:15.353Z,71.42
2019-04-30T19:51:45.807Z,70.41
2019-04-30T19:54:16.270Z,70.73
2019-04-30T19:56:46.643Z,70.28
2019-04-30T19:59:17.129Z,70.65
2019-04-30T20:01:48.844Z,70.73
2019-04-30T20:04:19.384Z,70.80
2019-04-30T20:06:49.844Z,69.88
2019-04-30T20:09:20.315Z,70.30
2019-04-30T20:11:50.686Z,70.50
2019-04-30T20:14:21.071Z,71.31
2019-04-30T20:16:51.419Z,70.82
2019-04-30T20:19:21.784Z,70.84
2019-04-30T20:21:53.906Z,71.22
2019-04-30T20:24:24.527Z,70.93
2019-04-30T20:27:05.041Z,70.10
2019-04-30T20:29:28.829Z,70.99
2019-04-30T20:31:59.480Z,71.91
2019-04-30T20:34:29.925Z,72.15
2019-04-30T20:37:00.463Z,72.66
2019-04-30T20:39:58.660Z,72.62
2019-04-30T20:42:29.155Z,69.93
2019-04-30T20:44:59.610Z,70.14
2019-04-30T20:47:30.169Z,69.56
2019-04-30T20:50:00.607Z,69.04
2019-04-30T20:52:32.356Z,69.50
2019-04-30T20:55:02.965Z,69.36
2019-04-30T20:57:33.473Z,70.09
2019-04-30T21:00:04.326Z,69.49
2019-04-30T21:02:34.640Z,70.38
2019-04-30T21:05:05.163Z,70.64
2019-04-30T21:07:35.693Z,70.57
2019-04-30T21:10:06.551Z,70.92
2019-04-30T21:12:37.014Z,70.96
2019-04-30T21:15:09.563Z,71.00
2019-04-30T21:17:39.882Z,70.73
2019-04-30T21:20:11.962Z,70.14
2019-04-30T21:22:42.439Z,70.88
2019-04-30T21:25:13.020Z,70.62
2019-04-30T21:27:43.459Z,69.62
2019-04-30T21:30:14.654Z,70.72
2019-04-30T21:33:15.959Z,70.79
2019-04-30T21:35:52.881Z,70.68
2019-04-30T21:38:23.351Z,70.11
2019-04-30T21:40:53.767Z,70.17
2019-04-30T21:43:24.184Z,71.21
2019-04-30T21:45:54.553Z,71.33
2019-04-30T21:48:25.110Z,71.27
2019-04-30T21:50:55.586Z,71.46
2019-04-30T21:53:25.998Z,71.78
2019-04-30T21:55:56.442Z,72.64
2019-04-30T21:58:28.823Z,71.73
2019-04-30T22:01:25.905Z,71.14
2019-04-30T22:03:56.719Z,71.86
2019-04-30T22:06:27.008Z,71.67
2019-04-30T22:08:58.564Z,71.92
2019-04-30T22:11:29.742Z,71.99
2019-04-30T22:14:00.282Z,72.85
2019-04-30T22:16:30.800Z,72.72
2019-04-30T22:19:01.224Z,72.28
2019-04-30T22:21:31.707Z,72.59
2019-04-30T22:24:02.149Z,73.12
2019-04-30T22:26:32.576Z,73.67
2019-04-30T22:29:03.017Z,73.92
2019-04-30T22:31:33.470Z,74.07
2019-04-30T22:34:03.938Z,74.34
2019-04-30T22:36:42.040Z,75.05
2019-04-30T22:39:25.659Z,74.92
2019-04-30T22:42:29.780Z,75.33
2019-04-30T22:45:01.283Z,75.31
2019-04-30T22:47:32.027Z,75.05
2019-04-30T22:50:02.545Z,75.36
2019-04-30T22:52:33.026Z,75.67
2019-04-30T22:55:03.534Z,76.27
2019-04-30T22:57:33.975Z,76.70
2019-04-30T23:00:05.862Z,76.53
2019-04-30T23:02:42.708Z,76.99
2019-04-30T23:05:15.689Z,77.31
2019-04-30T23:07:46.299Z,77.26
2019-04-30T23:10:18.387Z,77.59
2019-04-30T23:12:48.757Z,77.81
2019-04-30T23:15:20.395Z,77.29
2019-04-30T23:17:50.945Z,77.26
2019-04-30T23:20:21.319Z,77.22
2019-04-30T23:22:51.608Z,77.62
2019-04-30T23:25:22.035Z,78.32
2019-04-30T23:27:52.461Z,78.12
2019-04-30T23:30:22.881Z,78.06
2019-04-30T23:32:53.366Z,78.39
2019-04-30T23:35:23.880Z,78.66
2019-04-30T23:37:54.343Z,78.50
2019-04-30T23:40:32.887Z,78.55
2019-04-30T23:43:03.304Z,79.21
2019-04-30T23:45:34.578Z,78.81
2019-04-30T23:48:05.138Z,79.09
2019-04-30T23:53:24.952Z,79.63
2019-04-30T23:55:55.250Z,79.11
2019-04-30T23:58:25.729Z,79.08
